sensor_id;sensor_type;location;lat;lon;timestamp;P1;durP1;ratioP1;P2;durP2;ratioP2
60098;SDS011;62818;49.394;8.686;2023-02-28T14:31:43;10.82;;;7.50;;
60098;SDS011;62818;49.394;8.686;2023-02-28T14:34:28;10.63;;;7.80;;
60098;SDS011;62818;49.394;8.686;2023-02-28T14:37:37;9.38;;;7.68;;
60098;SDS011;62818;49.394;8.686;2023-02-28T14:38:43;11.20;;;8.00;;
60098;SDS011;62818;49.394;8.686;2023-02-28T14:39:51;11.80;;;8.50;;
60098;SDS011;62818;49.394;8.686;2023-02-28T14:40:56;9.15;;;7.90;;
60098;SDS011;62818;49.394;8.686;2023-02-28T14:42:02;9.52;;;7.75;;
60098;SDS011;62818;49.394;8.686;2023-02-28T14:43:05;10.40;;;8.85;;
60098;SDS011;62818;49.394;8.686;2023-02-28T14:45:29;9.68;;;8.43;;
60098;SDS011;62818;49.394;8.686;2023-02-28T14:46:36;9.27;;;8.27;;
60098;SDS011;62818;49.394;8.686;2023-02-28T14:47:40;10.25;;;8.38;;
60098;SDS011;62818;49.394;8.686;2023-02-28T14:48:44;9.68;;;8.13;;
60098;SDS011;62818;49.394;8.686;2023-02-28T14:49:47;8.93;;;8.02;;
60098;SDS011;62818;49.394;8.686;2023-02-28T14:50:49;9.57;;;8.00;;
60098;SDS011;62818;49.394;8.686;2023-02-28T14:52:22;11.05;;;8.70;;
60098;SDS011;62818;49.394;8.686;2023-02-28T14:53:28;10.85;;;8.27;;
60098;SDS011;62818;49.394;8.686;2023-02-28T14:54:38;9.40;;;8.13;;
60098;SDS011;62818;49.394;8.686;2023-02-28T14:55:43;11.55;;;8.43;;
60098;SDS011;62818;49.394;8.686;2023-02-28T14:56:48;9.45;;;7.80;;
60098;SDS011;62818;49.394;8.686;2023-02-28T14:57:54;9.38;;;8.48;;
60098;SDS011;62818;49.394;8.686;2023-02-28T14:58:57;11.10;;;8.10;;
60098;SDS011;62818;49.394;8.686;2023-02-28T15:01:21;10.70;;;7.93;;
60098;SDS011;62818;49.394;8.686;2023-02-28T15:02:24;10.07;;;9.00;;
60098;SDS011;62818;49.394;8.686;2023-02-28T15:04:31;9.25;;;8.15;;
60098;SDS011;62818;49.394;8.686;2023-02-28T15:06:35;8.95;;;8.05;;
60098;SDS011;62818;49.394;8.686;2023-02-28T15:07:36;10.77;;;7.90;;
60098;SDS011;62818;49.394;8.686;2023-02-28T15:08:36;9.13;;;7.82;;
60098;SDS011;62818;49.394;8.686;2023-02-28T15:09:37;9.10;;;8.20;;
60098;SDS011;62818;49.394;8.686;2023-02-28T15:10:37;9.70;;;8.07;;
60098;SDS011;62818;49.394;8.686;2023-02-28T15:11:45;9.98;;;7.53;;
60098;SDS011;62818;49.394;8.686;2023-02-28T15:12:53;9.02;;;8.13;;
60098;SDS011;62818;49.394;8.686;2023-02-28T15:13:58;9.52;;;8.63;;
60098;SDS011;62818;49.394;8.686;2023-02-28T15:15:00;10.90;;;8.43;;
60098;SDS011;62818;49.394;8.686;2023-02-28T15:16:01;9.60;;;8.27;;
60098;SDS011;62818;49.394;8.686;2023-02-28T15:17:08;10.02;;;8.55;;
60098;SDS011;62818;49.394;8.686;2023-02-28T15:19:58;8.93;;;8.02;;
60098;SDS011;62818;49.394;8.686;2023-02-28T15:21:02;9.73;;;8.43;;
60098;SDS011;62818;49.394;8.686;2023-02-28T15:22:10;9.63;;;7.88;;
60098;SDS011;62818;49.394;8.686;2023-02-28T15:23:18;9.02;;;8.13;;
60098;SDS011;62818;49.394;8.686;2023-02-28T15:25:31;9.85;;;8.90;;
60098;SDS011;62818;49.394;8.686;2023-02-28T15:26:33;12.37;;;9.10;;
60098;SDS011;62818;49.394;8.686;2023-02-28T15:27:46;11.68;;;9.50;;
60098;SDS011;62818;49.394;8.686;2023-02-28T15:28:58;10.65;;;8.65;;
60098;SDS011;62818;49.394;8.686;2023-02-28T15:30:05;10.30;;;9.23;;
60098;SDS011;62818;49.394;8.686;2023-02-28T15:31:21;9.50;;;8.48;;
60098;SDS011;62818;49.394;8.686;2023-02-28T15:32:32;9.65;;;8.65;;
60098;SDS011;62818;49.394;8.686;2023-02-28T15:33:36;11.65;;;8.98;;
60098;SDS011;62818;49.394;8.686;2023-02-28T15:34:41;11.30;;;8.73;;
60098;SDS011;62818;49.394;8.686;2023-02-28T15:35:43;9.60;;;8.60;;
60098;SDS011;62818;49.394;8.686;2023-02-28T15:36:44;11.13;;;8.40;;
60098;SDS011;62818;49.394;8.686;2023-02-28T15:37:46;9.90;;;8.53;;
60098;SDS011;62818;49.394;8.686;2023-02-28T15:38:56;13.40;;;9.00;;
60098;SDS011;62818;49.394;8.686;2023-02-28T15:39:58;11.50;;;8.57;;
60098;SDS011;62818;49.394;8.686;2023-02-28T15:41:35;10.68;;;8.63;;
60098;SDS011;62818;49.394;8.686;2023-02-28T15:42:40;15.10;;;9.93;;
60098;SDS011;62818;49.394;8.686;2023-02-28T15:43:43;10.93;;;8.80;;
60098;SDS011;62818;49.394;8.686;2023-02-28T15:44:44;11.53;;;8.97;;
60098;SDS011;62818;49.394;8.686;2023-02-28T15:46:57;10.30;;;8.65;;
60098;SDS011;62818;49.394;8.686;2023-02-28T15:48:17;10.13;;;8.75;;
60098;SDS011;62818;49.394;8.686;2023-02-28T15:49:18;10.07;;;8.98;;
60098;SDS011;62818;49.394;8.686;2023-02-28T15:50:22;11.60;;;9.45;;
60098;SDS011;62818;49.394;8.686;2023-02-28T15:51:24;12.47;;;9.30;;
60098;SDS011;62818;49.394;8.686;2023-02-28T15:54:00;10.00;;;8.90;;
60098;SDS011;62818;49.394;8.686;2023-02-28T15:55:08;11.05;;;9.40;;
60098;SDS011;62818;49.394;8.686;2023-02-28T15:56:23;11.52;;;9.18;;
60098;SDS011;62818;49.394;8.686;2023-02-28T15:57:28;13.30;;;10.15;;
60098;SDS011;62818;49.394;8.686;2023-02-28T15:58:29;10.35;;;8.65;;
60098;SDS011;62818;49.394;8.686;2023-02-28T15:59:31;10.52;;;9.23;;
60098;SDS011;62818;49.394;8.686;2023-02-28T16:00:32;11.88;;;9.32;;
60098;SDS011;62818;49.394;8.686;2023-02-28T16:01:36;11.40;;;9.50;;
60098;SDS011;62818;49.394;8.686;2023-02-28T16:02:38;10.18;;;8.55;;
60098;SDS011;62818;49.394;8.686;2023-02-28T16:03:41;11.40;;;9.70;;
60098;SDS011;62818;49.394;8.686;2023-02-28T16:07:46;9.98;;;8.65;;
60098;SDS011;62818;49.394;8.686;2023-02-28T16:08:48;11.45;;;9.18;;
60098;SDS011;62818;49.394;8.686;2023-02-28T16:09:51;9.85;;;8.80;;
60098;SDS011;62818;49.394;8.686;2023-02-28T16:10:52;11.88;;;9.80;;
60098;SDS011;62818;49.394;8.686;2023-02-28T16:11:54;10.33;;;9.07;;
60098;SDS011;62818;49.394;8.686;2023-02-28T16:13:01;10.68;;;9.07;;
60098;SDS011;62818;49.394;8.686;2023-02-28T16:14:02;10.57;;;8.65;;
60098;SDS011;62818;49.394;8.686;2023-02-28T16:15:06;9.88;;;8.75;;
60098;SDS011;62818;49.394;8.686;2023-02-28T16:16:21;10.07;;;9.07;;
60098;SDS011;62818;49.394;8.686;2023-02-28T16:17:25;10.90;;;9.25;;
60098;SDS011;62818;49.394;8.686;2023-02-28T16:18:29;9.85;;;8.85;;
60098;SDS011;62818;49.394;8.686;2023-02-28T16:19:30;12.97;;;9.20;;
60098;SDS011;62818;49.394;8.686;2023-02-28T16:20:31;12.50;;;9.15;;
60098;SDS011;62818;49.394;8.686;2023-02-28T16:21:32;10.13;;;9.00;;
60098;SDS011;62818;49.394;8.686;2023-02-28T16:22:32;10.17;;;8.90;;
60098;SDS011;62818;49.394;8.686;2023-02-28T16:23:33;10.83;;;9.67;;
60098;SDS011;62818;49.394;8.686;2023-02-28T16:24:33;10.80;;;9.33;;
60098;SDS011;62818;49.394;8.686;2023-02-28T16:25:38;9.80;;;8.83;;
60098;SDS011;62818;49.394;8.686;2023-02-28T16:26:42;10.20;;;8.73;;
60098;SDS011;62818;49.394;8.686;2023-02-28T16:27:48;9.88;;;8.88;;
60098;SDS011;62818;49.394;8.686;2023-02-28T16:28:53;10.68;;;9.23;;
60098;SDS011;62818;49.394;8.686;2023-02-28T16:29:54;12.23;;;9.30;;
60098;SDS011;62818;49.394;8.686;2023-02-28T16:30:55;10.00;;;8.87;;
60098;SDS011;62818;49.394;8.686;2023-02-28T16:31:56;10.27;;;9.18;;
60098;SDS011;62818;49.394;8.686;2023-02-28T16:32:58;10.07;;;9.07;;
60098;SDS011;62818;49.394;8.686;2023-02-28T16:33:59;10.10;;;9.07;;
60098;SDS011;62818;49.394;8.686;2023-02-28T16:35:00;10.77;;;9.63;;
60098;SDS011;62818;49.394;8.686;2023-02-28T16:36:00;11.93;;;9.85;;
60098;SDS011;62818;49.394;8.686;2023-02-28T16:37:01;10.50;;;9.45;;
60098;SDS011;62818;49.394;8.686;2023-02-28T16:38:02;10.40;;;8.87;;
60098;SDS011;62818;49.394;8.686;2023-02-28T16:39:02;11.47;;;9.53;;
60098;SDS011;62818;49.394;8.686;2023-02-28T16:40:03;9.80;;;8.70;;
60098;SDS011;62818;49.394;8.686;2023-02-28T16:41:04;11.60;;;9.27;;
60098;SDS011;62818;49.394;8.686;2023-02-28T16:42:05;12.70;;;9.55;;
60098;SDS011;62818;49.394;8.686;2023-02-28T16:43:09;11.20;;;9.50;;
60098;SDS011;62818;49.394;8.686;2023-02-28T16:44:21;10.55;;;9.40;;
60098;SDS011;62818;49.394;8.686;2023-02-28T16:45:29;10.85;;;9.70;;
60098;SDS011;62818;49.394;8.686;2023-02-28T16:46:35;10.53;;;9.37;;
60098;SDS011;62818;49.394;8.686;2023-02-28T16:47:36;11.93;;;9.95;;
60098;SDS011;62818;49.394;8.686;2023-02-28T16:48:36;10.40;;;9.37;;
60098;SDS011;62818;49.394;8.686;2023-02-28T16:49:37;12.33;;;9.50;;
60098;SDS011;62818;49.394;8.686;2023-02-28T16:50:38;16.35;;;9.75;;
60098;SDS011;62818;49.394;8.686;2023-02-28T16:51:38;10.97;;;9.40;;
60098;SDS011;62818;49.394;8.686;2023-02-28T16:52:39;12.67;;;9.63;;
60098;SDS011;62818;49.394;8.686;2023-02-28T16:53:39;11.33;;;9.20;;
60098;SDS011;62818;49.394;8.686;2023-02-28T16:54:40;11.57;;;9.50;;
60098;SDS011;62818;49.394;8.686;2023-02-28T16:55:41;12.95;;;9.98;;
60098;SDS011;62818;49.394;8.686;2023-02-28T16:56:43;13.43;;;9.82;;
60098;SDS011;62818;49.394;8.686;2023-02-28T16:57:49;12.48;;;9.50;;
60098;SDS011;62818;49.394;8.686;2023-02-28T16:58:59;12.32;;;10.13;;
60098;SDS011;62818;49.394;8.686;2023-02-28T17:00:02;12.50;;;10.05;;
60098;SDS011;62818;49.394;8.686;2023-02-28T17:01:05;12.27;;;9.82;;
60098;SDS011;62818;49.394;8.686;2023-02-28T17:02:10;16.40;;;10.07;;
60098;SDS011;62818;49.394;8.686;2023-02-28T17:03:20;10.65;;;9.48;;
60098;SDS011;62818;49.394;8.686;2023-02-28T17:04:25;12.57;;;9.77;;
60098;SDS011;62818;49.394;8.686;2023-02-28T17:06:33;12.00;;;9.85;;
60098;SDS011;62818;49.394;8.686;2023-02-28T17:07:33;10.47;;;9.30;;
60098;SDS011;62818;49.394;8.686;2023-02-28T17:08:34;11.43;;;9.93;;
60098;SDS011;62818;49.394;8.686;2023-02-28T17:09:35;12.97;;;9.90;;
60098;SDS011;62818;49.394;8.686;2023-02-28T17:10:35;14.57;;;10.10;;
60098;SDS011;62818;49.394;8.686;2023-02-28T17:11:36;12.40;;;10.40;;
60098;SDS011;62818;49.394;8.686;2023-02-28T17:12:37;11.73;;;10.20;;
60098;SDS011;62818;49.394;8.686;2023-02-28T17:13:37;11.60;;;10.40;;
60098;SDS011;62818;49.394;8.686;2023-02-28T17:14:37;12.60;;;10.43;;
60098;SDS011;62818;49.394;8.686;2023-02-28T17:15:38;12.60;;;10.43;;
60098;SDS011;62818;49.394;8.686;2023-02-28T17:16:40;12.38;;;10.48;;
60098;SDS011;62818;49.394;8.686;2023-02-28T17:17:43;10.98;;;9.82;;
60098;SDS011;62818;49.394;8.686;2023-02-28T17:18:44;12.88;;;10.35;;
60098;SDS011;62818;49.394;8.686;2023-02-28T17:19:45;11.63;;;10.43;;
60098;SDS011;62818;49.394;8.686;2023-02-28T17:20:46;14.13;;;9.93;;
60098;SDS011;62818;49.394;8.686;2023-02-28T17:21:48;13.88;;;10.00;;
60098;SDS011;62818;49.394;8.686;2023-02-28T17:22:51;10.73;;;9.63;;
60098;SDS011;62818;49.394;8.686;2023-02-28T17:23:53;13.25;;;10.43;;
60098;SDS011;62818;49.394;8.686;2023-02-28T17:24:53;14.20;;;10.63;;
60098;SDS011;62818;49.394;8.686;2023-02-28T17:25:58;13.35;;;10.27;;
60098;SDS011;62818;49.394;8.686;2023-02-28T17:26:59;11.30;;;9.90;;
60098;SDS011;62818;49.394;8.686;2023-02-28T17:27:59;13.20;;;10.63;;
60098;SDS011;62818;49.394;8.686;2023-02-28T17:29:00;12.17;;;10.77;;
60098;SDS011;62818;49.394;8.686;2023-02-28T17:30:00;12.23;;;9.77;;
60098;SDS011;62818;49.394;8.686;2023-02-28T17:31:03;12.32;;;10.60;;
60098;SDS011;62818;49.394;8.686;2023-02-28T17:32:03;12.77;;;10.87;;
60098;SDS011;62818;49.394;8.686;2023-02-28T17:33:04;13.52;;;9.80;;
60098;SDS011;62818;49.394;8.686;2023-02-28T17:34:05;11.83;;;10.03;;
60098;SDS011;62818;49.394;8.686;2023-02-28T17:35:05;12.13;;;10.57;;
60098;SDS011;62818;49.394;8.686;2023-02-28T17:36:09;13.35;;;10.55;;
60098;SDS011;62818;49.394;8.686;2023-02-28T17:37:16;11.45;;;10.23;;
60098;SDS011;62818;49.394;8.686;2023-02-28T17:38:18;12.17;;;9.93;;
60098;SDS011;62818;49.394;8.686;2023-02-28T17:39:20;11.45;;;10.25;;
60098;SDS011;62818;49.394;8.686;2023-02-28T17:40:24;14.93;;;9.98;;
60098;SDS011;62818;49.394;8.686;2023-02-28T17:41:24;14.80;;;10.20;;
60098;SDS011;62818;49.394;8.686;2023-02-28T17:43:26;13.60;;;9.93;;
60098;SDS011;62818;49.394;8.686;2023-02-28T17:44:27;12.93;;;9.30;;
60098;SDS011;62818;49.394;8.686;2023-02-28T17:45:27;11.67;;;10.47;;
60098;SDS011;62818;49.394;8.686;2023-02-28T17:46:28;12.47;;;9.53;;
60098;SDS011;62818;49.394;8.686;2023-02-28T17:47:28;10.77;;;9.67;;
60098;SDS011;62818;49.394;8.686;2023-02-28T17:48:29;12.07;;;10.10;;
60098;SDS011;62818;49.394;8.686;2023-02-28T17:49:30;13.83;;;9.40;;
60098;SDS011;62818;49.394;8.686;2023-02-28T17:50:30;11.83;;;9.60;;
60098;SDS011;62818;49.394;8.686;2023-02-28T17:51:31;11.23;;;9.75;;
60098;SDS011;62818;49.394;8.686;2023-02-28T17:52:32;13.43;;;10.23;;
60098;SDS011;62818;49.394;8.686;2023-02-28T17:53:36;11.70;;;10.25;;
60098;SDS011;62818;49.394;8.686;2023-02-28T17:54:37;12.57;;;9.73;;
60098;SDS011;62818;49.394;8.686;2023-02-28T17:55:37;18.40;;;10.37;;
60098;SDS011;62818;49.394;8.686;2023-02-28T17:56:38;14.82;;;9.40;;
60098;SDS011;62818;49.394;8.686;2023-02-28T17:57:40;12.43;;;9.90;;
60098;SDS011;62818;49.394;8.686;2023-02-28T17:59:42;12.00;;;10.02;;
60098;SDS011;62818;49.394;8.686;2023-02-28T18:00:43;12.23;;;10.23;;
60098;SDS011;62818;49.394;8.686;2023-02-28T18:02:45;11.70;;;9.93;;
60098;SDS011;62818;49.394;8.686;2023-02-28T18:03:46;11.13;;;9.63;;
60098;SDS011;62818;49.394;8.686;2023-02-28T18:04:47;11.18;;;9.50;;
60098;SDS011;62818;49.394;8.686;2023-02-28T18:05:48;12.93;;;10.70;;
60098;SDS011;62818;49.394;8.686;2023-02-28T18:06:49;10.43;;;9.32;;
60098;SDS011;62818;49.394;8.686;2023-02-28T18:07:50;13.88;;;10.45;;
60098;SDS011;62818;49.394;8.686;2023-02-28T18:08:51;13.57;;;10.50;;
60098;SDS011;62818;49.394;8.686;2023-02-28T18:09:52;10.77;;;9.63;;
60098;SDS011;62818;49.394;8.686;2023-02-28T18:10:53;11.43;;;10.03;;
60098;SDS011;62818;49.394;8.686;2023-02-28T18:11:54;12.47;;;10.20;;
60098;SDS011;62818;49.394;8.686;2023-02-28T18:12:55;13.27;;;10.48;;
60098;SDS011;62818;49.394;8.686;2023-02-28T18:13:56;12.33;;;9.83;;
60098;SDS011;62818;49.394;8.686;2023-02-28T18:14:58;13.20;;;10.68;;
60098;SDS011;62818;49.394;8.686;2023-02-28T18:15:58;13.77;;;10.23;;
60098;SDS011;62818;49.394;8.686;2023-02-28T18:16:59;13.37;;;10.90;;
60098;SDS011;62818;49.394;8.686;2023-02-28T18:17:59;12.73;;;10.27;;
60098;SDS011;62818;49.394;8.686;2023-02-28T18:19:00;10.73;;;9.73;;
60098;SDS011;62818;49.394;8.686;2023-02-28T18:20:02;15.32;;;11.10;;
60098;SDS011;62818;49.394;8.686;2023-02-28T18:21:04;14.80;;;11.45;;
60098;SDS011;62818;49.394;8.686;2023-02-28T18:22:08;13.00;;;10.93;;
60098;SDS011;62818;49.394;8.686;2023-02-28T18:23:08;11.52;;;10.07;;
60098;SDS011;62818;49.394;8.686;2023-02-28T18:24:09;11.90;;;10.70;;
60098;SDS011;62818;49.394;8.686;2023-02-28T18:25:11;17.90;;;12.20;;
60098;SDS011;62818;49.394;8.686;2023-02-28T18:26:17;12.93;;;11.55;;
60098;SDS011;62818;49.394;8.686;2023-02-28T18:27:19;13.48;;;11.77;;
60098;SDS011;62818;49.394;8.686;2023-02-28T18:28:19;14.00;;;10.40;;
60098;SDS011;62818;49.394;8.686;2023-02-28T18:29:21;12.40;;;10.37;;
60098;SDS011;62818;49.394;8.686;2023-02-28T18:30:28;13.52;;;10.77;;
60098;SDS011;62818;49.394;8.686;2023-02-28T18:31:32;12.88;;;10.93;;
60098;SDS011;62818;49.394;8.686;2023-02-28T18:32:33;12.60;;;10.93;;
60098;SDS011;62818;49.394;8.686;2023-02-28T18:33:34;15.73;;;11.20;;
60098;SDS011;62818;49.394;8.686;2023-02-28T18:34:34;16.10;;;11.43;;
60098;SDS011;62818;49.394;8.686;2023-02-28T18:35:35;15.97;;;11.33;;
60098;SDS011;62818;49.394;8.686;2023-02-28T18:36:36;14.48;;;10.63;;
60098;SDS011;62818;49.394;8.686;2023-02-28T18:37:36;16.07;;;10.17;;
60098;SDS011;62818;49.394;8.686;2023-02-28T18:38:37;12.47;;;10.20;;
60098;SDS011;62818;49.394;8.686;2023-02-28T18:39:38;12.48;;;10.40;;
60098;SDS011;62818;49.394;8.686;2023-02-28T18:40:39;15.20;;;11.20;;
60098;SDS011;62818;49.394;8.686;2023-02-28T18:41:41;13.10;;;11.30;;
60098;SDS011;62818;49.394;8.686;2023-02-28T18:42:42;13.63;;;10.47;;
60098;SDS011;62818;49.394;8.686;2023-02-28T18:43:42;14.43;;;11.63;;
60098;SDS011;62818;49.394;8.686;2023-02-28T18:44:43;13.97;;;11.57;;
60098;SDS011;62818;49.394;8.686;2023-02-28T18:45:43;12.17;;;10.73;;
60098;SDS011;62818;49.394;8.686;2023-02-28T18:46:44;13.67;;;10.50;;
60098;SDS011;62818;49.394;8.686;2023-02-28T18:47:44;13.87;;;11.10;;
60098;SDS011;62818;49.394;8.686;2023-02-28T18:48:45;15.17;;;11.20;;
60098;SDS011;62818;49.394;8.686;2023-02-28T18:49:46;14.48;;;11.20;;
60098;SDS011;62818;49.394;8.686;2023-02-28T18:50:47;14.90;;;11.00;;
60098;SDS011;62818;49.394;8.686;2023-02-28T18:51:48;14.15;;;10.52;;
60098;SDS011;62818;49.394;8.686;2023-02-28T18:52:49;14.00;;;11.03;;
60098;SDS011;62818;49.394;8.686;2023-02-28T18:53:50;12.32;;;10.20;;
60098;SDS011;62818;49.394;8.686;2023-02-28T18:54:51;12.52;;;10.40;;
60098;SDS011;62818;49.394;8.686;2023-02-28T18:55:52;13.13;;;10.07;;
60098;SDS011;62818;49.394;8.686;2023-02-28T18:56:52;14.13;;;11.40;;
60098;SDS011;62818;49.394;8.686;2023-02-28T18:57:55;13.50;;;11.20;;
60098;SDS011;62818;49.394;8.686;2023-02-28T18:58:55;12.70;;;10.17;;
60098;SDS011;62818;49.394;8.686;2023-02-28T18:59:56;13.90;;;11.50;;
60098;SDS011;62818;49.394;8.686;2023-02-28T19:00:56;13.30;;;11.80;;
60098;SDS011;62818;49.394;8.686;2023-02-28T19:01:57;15.53;;;12.37;;
60098;SDS011;62818;49.394;8.686;2023-02-28T19:02:57;19.17;;;13.17;;
60098;SDS011;62818;49.394;8.686;2023-02-28T19:03:58;17.17;;;12.35;;
60098;SDS011;62818;49.394;8.686;2023-02-28T19:05:00;14.52;;;12.80;;
60098;SDS011;62818;49.394;8.686;2023-02-28T19:06:01;21.97;;;12.87;;
60098;SDS011;62818;49.394;8.686;2023-02-28T19:07:02;15.53;;;11.90;;
60098;SDS011;62818;49.394;8.686;2023-02-28T19:08:02;16.27;;;12.37;;
60098;SDS011;62818;49.394;8.686;2023-02-28T19:09:04;16.67;;;11.60;;
60098;SDS011;62818;49.394;8.686;2023-02-28T19:10:05;17.00;;;12.25;;
60098;SDS011;62818;49.394;8.686;2023-02-28T19:11:11;13.15;;;11.75;;
60098;SDS011;62818;49.394;8.686;2023-02-28T19:12:15;18.30;;;12.52;;
60098;SDS011;62818;49.394;8.686;2023-02-28T19:13:16;14.38;;;11.00;;
60098;SDS011;62818;49.394;8.686;2023-02-28T19:14:19;18.15;;;11.70;;
60098;SDS011;62818;49.394;8.686;2023-02-28T19:15:21;13.57;;;10.98;;
60098;SDS011;62818;49.394;8.686;2023-02-28T19:16:21;14.97;;;11.27;;
60098;SDS011;62818;49.394;8.686;2023-02-28T19:17:22;16.33;;;11.88;;
60098;SDS011;62818;49.394;8.686;2023-02-28T19:18:23;15.20;;;11.83;;
60098;SDS011;62818;49.394;8.686;2023-02-28T19:19:23;14.77;;;11.77;;
60098;SDS011;62818;49.394;8.686;2023-02-28T19:20:24;15.00;;;11.83;;
60098;SDS011;62818;49.394;8.686;2023-02-28T19:21:24;18.93;;;11.73;;
60098;SDS011;62818;49.394;8.686;2023-02-28T19:22:25;16.75;;;11.57;;
60098;SDS011;62818;49.394;8.686;2023-02-28T19:23:26;14.17;;;11.10;;
60098;SDS011;62818;49.394;8.686;2023-02-28T19:24:27;14.25;;;10.80;;
60098;SDS011;62818;49.394;8.686;2023-02-28T19:25:28;13.00;;;10.90;;
60098;SDS011;62818;49.394;8.686;2023-02-28T19:26:28;16.23;;;11.60;;
60098;SDS011;62818;49.394;8.686;2023-02-28T19:27:29;16.00;;;11.17;;
60098;SDS011;62818;49.394;8.686;2023-02-28T19:28:29;14.37;;;11.33;;
60098;SDS011;62818;49.394;8.686;2023-02-28T19:29:30;18.00;;;11.00;;
60098;SDS011;62818;49.394;8.686;2023-02-28T19:30:30;13.47;;;11.00;;
60098;SDS011;62818;49.394;8.686;2023-02-28T19:31:31;16.90;;;11.30;;
60098;SDS011;62818;49.394;8.686;2023-02-28T19:32:32;15.02;;;11.93;;
60098;SDS011;62818;49.394;8.686;2023-02-28T19:33:33;12.77;;;10.87;;
60098;SDS011;62818;49.394;8.686;2023-02-28T19:34:33;16.13;;;12.03;;
60098;SDS011;62818;49.394;8.686;2023-02-28T19:35:34;17.27;;;11.63;;
60098;SDS011;62818;49.394;8.686;2023-02-28T19:36:34;16.03;;;11.77;;
60098;SDS011;62818;49.394;8.686;2023-02-28T19:37:38;12.37;;;10.67;;
60098;SDS011;62818;49.394;8.686;2023-02-28T19:38:40;13.80;;;11.43;;
60098;SDS011;62818;49.394;8.686;2023-02-28T19:39:43;14.55;;;11.80;;
60098;SDS011;62818;49.394;8.686;2023-02-28T19:40:44;14.38;;;11.07;;
60098;SDS011;62818;49.394;8.686;2023-02-28T19:41:45;14.25;;;11.27;;
60098;SDS011;62818;49.394;8.686;2023-02-28T19:42:46;12.93;;;11.07;;
60098;SDS011;62818;49.394;8.686;2023-02-28T19:43:46;14.37;;;12.07;;
60098;SDS011;62818;49.394;8.686;2023-02-28T19:44:47;14.57;;;11.63;;
60098;SDS011;62818;49.394;8.686;2023-02-28T19:45:48;15.00;;;12.60;;
60098;SDS011;62818;49.394;8.686;2023-02-28T19:46:48;15.07;;;11.87;;
60098;SDS011;62818;49.394;8.686;2023-02-28T19:47:49;15.80;;;11.87;;
60098;SDS011;62818;49.394;8.686;2023-02-28T19:48:52;15.37;;;12.17;;
60098;SDS011;62818;49.394;8.686;2023-02-28T19:49:53;15.10;;;11.90;;
60098;SDS011;62818;49.394;8.686;2023-02-28T19:51:01;14.95;;;12.57;;
60098;SDS011;62818;49.394;8.686;2023-02-28T19:52:05;14.02;;;11.30;;
60098;SDS011;62818;49.394;8.686;2023-02-28T19:53:06;14.73;;;11.52;;
60098;SDS011;62818;49.394;8.686;2023-02-28T19:54:06;14.53;;;12.00;;
60098;SDS011;62818;49.394;8.686;2023-02-28T19:55:07;16.63;;;11.53;;
60098;SDS011;62818;49.394;8.686;2023-02-28T19:56:08;16.02;;;12.15;;
60098;SDS011;62818;49.394;8.686;2023-02-28T19:57:09;16.52;;;12.27;;
60098;SDS011;62818;49.394;8.686;2023-02-28T19:58:10;13.70;;;12.17;;
60098;SDS011;62818;49.394;8.686;2023-02-28T19:59:10;18.70;;;11.53;;
60098;SDS011;62818;49.394;8.686;2023-02-28T20:00:13;14.43;;;11.77;;
60098;SDS011;62818;49.394;8.686;2023-02-28T20:01:15;14.88;;;11.27;;
60098;SDS011;62818;49.394;8.686;2023-02-28T20:02:19;15.60;;;11.30;;
60098;SDS011;62818;49.394;8.686;2023-02-28T20:03:21;14.93;;;10.90;;
60098;SDS011;62818;49.394;8.686;2023-02-28T20:04:22;13.43;;;11.65;;
60098;SDS011;62818;49.394;8.686;2023-02-28T20:05:25;15.50;;;11.80;;
60098;SDS011;62818;49.394;8.686;2023-02-28T20:06:26;20.67;;;11.83;;
60098;SDS011;62818;49.394;8.686;2023-02-28T20:07:26;13.53;;;11.40;;
60098;SDS011;62818;49.394;8.686;2023-02-28T20:08:27;15.13;;;12.33;;
60098;SDS011;62818;49.394;8.686;2023-02-28T20:09:30;12.90;;;11.53;;
60098;SDS011;62818;49.394;8.686;2023-02-28T20:10:34;16.05;;;12.35;;
60098;SDS011;62818;49.394;8.686;2023-02-28T20:11:35;17.23;;;11.90;;
60098;SDS011;62818;49.394;8.686;2023-02-28T20:12:35;13.43;;;11.00;;
60098;SDS011;62818;49.394;8.686;2023-02-28T20:13:36;17.07;;;13.13;;
60098;SDS011;62818;49.394;8.686;2023-02-28T20:14:37;13.30;;;11.17;;
60098;SDS011;62818;49.394;8.686;2023-02-28T20:15:37;15.93;;;10.70;;
60098;SDS011;62818;49.394;8.686;2023-02-28T20:16:41;13.03;;;11.63;;
60098;SDS011;62818;49.394;8.686;2023-02-28T20:17:42;12.98;;;11.55;;
60098;SDS011;62818;49.394;8.686;2023-02-28T20:18:48;14.20;;;11.57;;
60098;SDS011;62818;49.394;8.686;2023-02-28T20:19:53;13.48;;;11.15;;
60098;SDS011;62818;49.394;8.686;2023-02-28T20:20:54;13.93;;;10.63;;
60098;SDS011;62818;49.394;8.686;2023-02-28T20:21:54;13.63;;;10.95;;
60098;SDS011;62818;49.394;8.686;2023-02-28T20:22:55;15.60;;;11.27;;
60098;SDS011;62818;49.394;8.686;2023-02-28T20:23:56;15.40;;;11.40;;
60098;SDS011;62818;49.394;8.686;2023-02-28T20:24:56;14.03;;;10.80;;
60098;SDS011;62818;49.394;8.686;2023-02-28T20:25:57;12.37;;;10.70;;
60098;SDS011;62818;49.394;8.686;2023-02-28T20:26:59;14.48;;;10.93;;
60098;SDS011;62818;49.394;8.686;2023-02-28T20:28:00;14.10;;;11.00;;
60098;SDS011;62818;49.394;8.686;2023-02-28T20:29:01;12.93;;;10.27;;
60098;SDS011;62818;49.394;8.686;2023-02-28T20:30:02;15.87;;;10.90;;
60098;SDS011;62818;49.394;8.686;2023-02-28T20:31:11;14.57;;;11.07;;
60098;SDS011;62818;49.394;8.686;2023-02-28T20:32:21;13.20;;;10.63;;
60098;SDS011;62818;49.394;8.686;2023-02-28T20:33:21;13.03;;;10.90;;
60098;SDS011;62818;49.394;8.686;2023-02-28T20:34:22;15.55;;;11.57;;
60098;SDS011;62818;49.394;8.686;2023-02-28T20:35:24;16.23;;;11.05;;
60098;SDS011;62818;49.394;8.686;2023-02-28T20:36:24;15.87;;;11.27;;
60098;SDS011;62818;49.394;8.686;2023-02-28T20:37:26;13.52;;;11.38;;
60098;SDS011;62818;49.394;8.686;2023-02-28T20:38:27;13.77;;;11.32;;
60098;SDS011;62818;49.394;8.686;2023-02-28T20:39:27;15.23;;;10.97;;
60098;SDS011;62818;49.394;8.686;2023-02-28T20:40:28;13.57;;;10.90;;
60098;SDS011;62818;49.394;8.686;2023-02-28T20:41:28;16.73;;;11.83;;
60098;SDS011;62818;49.394;8.686;2023-02-28T20:42:29;15.43;;;11.20;;
60098;SDS011;62818;49.394;8.686;2023-02-28T20:43:29;16.37;;;11.00;;
60098;SDS011;62818;49.394;8.686;2023-02-28T20:44:30;14.37;;;11.40;;
60098;SDS011;62818;49.394;8.686;2023-02-28T20:45:30;15.10;;;10.87;;
60098;SDS011;62818;49.394;8.686;2023-02-28T20:46:31;17.87;;;11.20;;
60098;SDS011;62818;49.394;8.686;2023-02-28T20:47:33;14.98;;;11.30;;
60098;SDS011;62818;49.394;8.686;2023-02-28T20:48:34;16.23;;;11.70;;
60098;SDS011;62818;49.394;8.686;2023-02-28T20:49:35;15.38;;;11.90;;
60098;SDS011;62818;49.394;8.686;2023-02-28T20:50:35;13.00;;;11.00;;
60098;SDS011;62818;49.394;8.686;2023-02-28T20:51:36;11.87;;;10.13;;
60098;SDS011;62818;49.394;8.686;2023-02-28T20:52:41;11.75;;;10.10;;
60098;SDS011;62818;49.394;8.686;2023-02-28T20:53:43;13.77;;;10.65;;
60098;SDS011;62818;49.394;8.686;2023-02-28T20:54:43;13.53;;;10.27;;
60098;SDS011;62818;49.394;8.686;2023-02-28T20:55:57;12.23;;;10.20;;
60098;SDS011;62818;49.394;8.686;2023-02-28T20:56:59;13.20;;;10.57;;
60098;SDS011;62818;49.394;8.686;2023-02-28T20:57:59;16.03;;;10.10;;
60098;SDS011;62818;49.394;8.686;2023-02-28T20:59:00;13.23;;;10.60;;
60098;SDS011;62818;49.394;8.686;2023-02-28T21:00:01;12.73;;;10.47;;
60098;SDS011;62818;49.394;8.686;2023-02-28T21:01:04;16.60;;;10.95;;